Time;durP1;ratioP1;P1;durP2;ratioP2;P2;SDS_P1;SDS_P2;PMS_P1;PMS_P2;Temp;Humidity;BMP_temperature;BMP_pressure;BME280_temperature;BME280_humidity;BME280_pressure;Samples;Min_cycle;Max_cycle;Signal;HPM_P1;HPM_P2
2023/11/30 00:01:05;;;;;;;;;0.00;0.00;;;;;7.79;100.00;99868.41;6303317;22;45251;-84
2023/11/30 00:03:30;;;;;;;;;0.00;0.00;;;;;7.80;100.00;99876.13;6303060;22;45365;-83
2023/11/30 00:05:56;;;;;;;;;0.00;0.00;;;;;7.92;100.00;99870.53;6303759;22;74507;-83
2023/11/30 00:08:21;;;;;;;;;0.00;0.00;;;;;7.92;100.00;99862.78;6303055;22;51398;-84
2023/11/30 00:10:46;;;;;;;;;0.00;0.00;;;;;7.98;100.00;99863.47;6303689;22;59434;-83
2023/11/30 00:13:12;;;;;;;;;0.00;0.00;;;;;7.98;100.00;99866.06;6302112;22;60268;-84
2023/11/30 00:15:37;;;;;;;;;0.00;0.00;;;;;8.02;100.00;99865.91;6275830;22;68136;-83
2023/11/30 00:18:02;;;;;;;;;0.00;0.00;;;;;8.02;100.00;99857.28;6304235;22;59746;-84
2023/11/30 00:20:28;;;;;;;;;0.00;0.00;;;;;7.99;100.00;99852.22;6303712;22;50876;-84
2023/11/30 00:22:53;;;;;;;;;0.00;0.00;;;;;7.98;100.00;99850.53;6306199;22;45276;-83
2023/11/30 00:25:18;;;;;;;;;0.00;0.00;;;;;8.01;100.00;99842.66;6303939;22;45918;-83
2023/11/30 00:27:44;;;;;;;;;0.00;0.00;;;;;8.02;100.00;99831.38;6303544;22;64451;-83
2023/11/30 00:30:10;;;;;;;;;0.00;0.00;;;;;8.06;100.00;99839.03;6306466;22;46160;-83
2023/11/30 00:32:36;;;;;;;;;0.00;0.00;;;;;8.05;100.00;99826.09;6304449;22;45472;-85
2023/11/30 00:35:02;;;;;;;;;0.00;0.00;;;;;8.09;100.00;99827.69;6304194;22;46961;-84
2023/11/30 00:37:27;;;;;;;;;0.00;0.00;;;;;8.10;100.00;99822.47;6305862;22;45307;-83
2023/11/30 00:39:53;;;;;;;;;0.00;0.00;;;;;8.09;100.00;99815.56;6305376;22;58123;-84
2023/11/30 00:42:18;;;;;;;;;0.00;0.00;;;;;8.09;100.00;99801.78;6303957;22;54152;-83
2023/11/30 00:44:43;;;;;;;;;0.00;0.00;;;;;8.12;100.00;99804.28;6304393;22;45897;-84
2023/11/30 00:47:09;;;;;;;;;0.00;0.00;;;;;8.04;100.00;99795.88;6305119;22;69920;-83
2023/11/30 00:49:34;;;;;;;;;0.00;0.00;;;;;8.15;100.00;99804.16;6305623;22;45505;-83
2023/11/30 00:51:59;;;;;;;;;0.00;0.00;;;;;8.10;100.00;99795.69;6305238;22;58050;-84
2023/11/30 00:54:25;;;;;;;;;0.00;0.00;;;;;7.79;100.00;99788.94;6303841;22;70333;-83
2023/11/30 00:56:50;;;;;;;;;0.00;0.00;;;;;7.72;100.00;99790.88;6277423;22;60358;-83
2023/11/30 00:59:15;;;;;;;;;0.00;0.00;;;;;7.69;100.00;99795.28;6303153;22;45406;-84
2023/11/30 01:01:41;;;;;;;;;0.00;0.00;;;;;7.69;100.00;99797.88;6304927;22;62561;-83
2023/11/30 01:04:06;;;;;;;;;0.00;0.00;;;;;7.62;100.00;99792.06;6303255;22;60874;-83
2023/11/30 01:06:31;;;;;;;;;0.00;0.00;;;;;7.55;100.00;99786.22;6305758;22;53876;-83
2023/11/30 01:08:57;;;;;;;;;0.00;0.00;;;;;7.53;100.00;99790.59;6304955;22;45271;-83
2023/11/30 01:11:22;;;;;;;;;0.00;0.00;;;;;7.46;100.00;99778.75;6303899;22;45183;-83
2023/11/30 01:13:47;;;;;;;;;0.00;0.00;;;;;7.44;100.00;99783.13;6305911;22;47402;-83
2023/11/30 01:16:13;;;;;;;;;0.00;0.00;;;;;7.42;100.00;99784.91;6304205;22;45217;-83
2023/11/30 01:18:38;;;;;;;;;0.00;0.00;;;;;7.38;100.00;99783.31;6304170;22;45301;-83
2023/11/30 01:21:04;;;;;;;;;0.00;0.00;;;;;7.33;100.00;99785.19;6304442;22;45329;-84
2023/11/30 01:23:29;;;;;;;;;0.00;0.00;;;;;7.25;100.00;99776.84;6305002;22;46996;-83
2023/11/30 01:25:54;;;;;;;;;0.00;0.00;;;;;7.28;100.00;99775.00;6305349;22;69674;-83
2023/11/30 01:28:20;;;;;;;;;0.00;0.00;;;;;7.19;100.00;99777.88;6303498;22;53440;-83
2023/11/30 01:30:45;;;;;;;;;0.00;0.00;;;;;7.10;100.00;99784.16;6305309;22;48396;-82
2023/11/30 01:33:11;;;;;;;;;0.00;0.00;;;;;7.07;100.00;99773.91;6303263;22;47175;-83
2023/11/30 01:35:36;;;;;;;;;0.00;0.00;;;;;7.07;100.00;99776.47;6305429;22;45330;-83
2023/11/30 01:38:02;;;;;;;;;0.00;0.00;;;;;7.13;100.00;99772.88;6303810;22;45485;-83
2023/11/30 01:40:27;;;;;;;;;0.00;0.00;;;;;7.10;100.00;99772.97;6303754;22;45451;-83
2023/11/30 01:42:52;;;;;;;;;0.00;0.00;;;;;7.13;100.00;99781.50;6304566;22;70312;-82
2023/11/30 01:45:18;;;;;;;;;0.00;0.00;;;;;7.10;100.00;99767.78;6304293;22;45314;-83
2023/11/30 01:47:44;;;;;;;;;0.00;0.00;;;;;7.12;100.00;99777.19;6305298;22;60570;-83
2023/11/30 01:50:09;;;;;;;;;0.00;0.00;;;;;7.12;100.00;99772.03;6303568;22;45463;-82
2023/11/30 01:52:35;;;;;;;;;0.00;0.00;;;;;7.13;100.00;99776.31;6277449;22;52122;-82
2023/11/30 01:55:02;;;;;;;;;0.00;0.00;;;;;7.16;100.00;99763.25;6276792;22;61137;-83
2023/11/30 01:57:28;;;;;;;;;1.00;1.00;;;;;7.18;100.00;99755.47;6303971;22;45168;-83
2023/11/30 01:59:54;;;;;;;;;0.00;0.00;;;;;7.22;100.00;99766.56;6304481;22;45662;-83
2023/11/30 02:02:19;;;;;;;;;0.00;0.00;;;;;7.20;100.00;99771.78;6302805;22;71494;-84
2023/11/30 02:04:49;;;;;;;;;0.00;0.00;;;;;7.26;100.00;99762.97;6304062;22;70677;-83
2023/11/30 02:07:14;;;;;;;;;0.00;0.00;;;;;7.24;100.00;99746.66;6304021;22;45318;-83
2023/11/30 02:09:40;;;;;;;;;0.67;0.67;;;;;7.28;100.00;99743.94;6305202;22;55794;-83
2023/11/30 02:12:05;;;;;;;;;0.00;0.00;;;;;7.29;100.00;99744.78;6304099;22;71997;-83
2023/11/30 02:14:32;;;;;;;;;0.00;0.00;;;;;7.29;100.00;99747.38;6306271;22;45213;-82
2023/11/30 02:16:57;;;;;;;;;0.00;0.00;;;;;7.27;100.00;99739.66;6306543;22;45310;-82
2023/11/30 02:19:23;;;;;;;;;0.00;0.00;;;;;7.34;100.00;99743.75;6305380;22;54878;-83
2023/11/30 02:21:50;;;;;;;;;0.00;0.00;;;;;7.36;100.00;99754.91;6303236;22;74174;-83
2023/11/30 02:24:16;;;;;;;;;0.00;0.00;;;;;7.23;100.00;99752.75;6277690;22;45270;-83
2023/11/30 02:26:41;;;;;;;;;0.00;0.00;;;;;7.17;100.00;99751.19;6306088;22;45494;-83
2023/11/30 02:29:06;;;;;;;;;0.00;0.00;;;;;7.12;100.00;99753.91;6305309;22;60792;-83
2023/11/30 02:31:32;;;;;;;;;0.00;0.00;;;;;7.05;100.00;99751.56;6305188;22;46395;-83
2023/11/30 02:33:57;;;;;;;;;0.00;0.00;;;;;7.05;100.00;99761.91;6305255;22;45269;-83
2023/11/30 02:36:23;;;;;;;;;0.00;0.00;;;;;6.95;100.00;99749.25;6305739;22;45323;-83
2023/11/30 02:38:48;;;;;;;;;0.00;0.00;;;;;6.96;100.00;99739.72;6303577;22;45414;-83
2023/11/30 02:41:13;;;;;;;;;0.00;0.00;;;;;6.95;100.00;99735.47;6276555;22;64173;-82
2023/11/30 02:43:39;;;;;;;;;0.00;0.00;;;;;6.88;100.00;99731.38;6305112;22;45291;-82
2023/11/30 02:46:08;;;;;;;;;0.00;0.00;;;;;6.91;100.00;99724.38;6306019;22;45271;-83
2023/11/30 02:48:33;;;;;;;;;0.00;0.00;;;;;6.87;100.00;99715.00;6304760;22;45171;-82
2023/11/30 02:50:59;;;;;;;;;0.00;0.00;;;;;6.90;100.00;99716.66;6302381;22;65018;-82
2023/11/30 02:53:24;;;;;;;;;0.00;0.00;;;;;6.81;100.00;99696.22;6305358;22;45312;-82
2023/11/30 02:55:49;;;;;;;;;0.00;0.00;;;;;6.82;100.00;99691.00;6303703;22;45393;-82
2023/11/30 02:58:15;;;;;;;;;6.00;4.00;;;;;6.92;100.00;99688.97;6304552;22;61893;-83
2023/11/30 03:00:40;;;;;;;;;0.00;0.00;;;;;6.83;100.00;99687.50;6304864;22;46188;-83
2023/11/30 03:03:05;;;;;;;;;0.00;0.00;;;;;6.79;100.00;99683.34;6304726;22;45358;-83
2023/11/30 03:05:31;;;;;;;;;0.00;0.00;;;;;6.78;100.00;99685.09;6304329;22;58569;-83
2023/11/30 03:07:56;;;;;;;;;8.25;8.25;;;;;6.75;100.00;99686.91;6303674;22;45318;-83
2023/11/30 03:10:22;;;;;;;;;0.00;0.00;;;;;6.74;100.00;99690.38;6304303;22;63197;-83
2023/11/30 03:12:47;;;;;;;;;0.00;0.00;;;;;6.84;100.00;99698.72;6304824;22;45349;-83
2023/11/30 03:15:14;;;;;;;;;0.00;0.00;;;;;6.85;100.00;99710.75;6302775;22;67583;-83
2023/11/30 03:17:40;;;;;;;;;0.00;0.00;;;;;6.88;100.00;99714.09;6304320;22;45441;-83
2023/11/30 03:20:06;;;;;;;;;0.00;0.00;;;;;6.89;100.00;99705.47;6304211;22;66936;-83
2023/11/30 03:22:31;;;;;;;;;1.00;1.00;;;;;6.88;100.00;99692.56;6303378;22;45301;-82
2023/11/30 03:24:56;;;;;;;;;0.00;0.00;;;;;6.90;100.00;99691.59;6305745;22;45367;-83
2023/11/30 03:27:22;;;;;;;;;6.00;6.00;;;;;6.80;100.00;99695.38;6305178;22;45285;-83
2023/11/30 03:29:47;;;;;;;;;0.00;0.00;;;;;6.85;100.00;99684.88;6304581;22;61049;-83
2023/11/30 03:32:12;;;;;;;;;0.00;0.00;;;;;6.79;100.00;99679.00;6301487;22;71727;-83
2023/11/30 03:34:38;;;;;;;;;0.00;0.00;;;;;6.75;100.00;99674.81;6304874;22;45229;-83
2023/11/30 03:37:03;;;;;;;;;0.00;0.00;;;;;6.75;100.00;99673.97;6304623;22;45335;-83
2023/11/30 03:39:28;;;;;;;;;0.00;0.00;;;;;6.73;100.00;99680.94;6305289;22;47163;-82
2023/11/30 03:41:54;;;;;;;;;1.00;1.00;;;;;6.70;100.00;99679.28;6304174;22;67826;-82
2023/11/30 03:44:19;;;;;;;;;0.00;0.00;;;;;6.57;100.00;99672.78;6304451;22;45279;-82
2023/11/30 03:46:44;;;;;;;;;0.00;0.00;;;;;6.52;100.00;99672.06;6302585;22;45265;-83
2023/11/30 03:49:10;;;;;;;;;0.00;0.00;;;;;6.48;100.00;99670.47;6303884;22;59777;-83
2023/11/30 03:51:35;;;;;;;;;0.00;0.00;;;;;6.46;100.00;99677.41;6304210;22;59977;-83
2023/11/30 03:54:00;;;;;;;;;0.00;0.00;;;;;6.46;100.00;99667.06;6301740;22;64721;-83
2023/11/30 03:56:30;;;;;;;;;0.00;0.00;;;;;6.44;100.00;99656.78;6304197;22;45185;-83
2023/11/30 03:58:56;;;;;;;;;4.00;4.00;;;;;6.38;100.00;99651.78;6302759;22;45349;-82
2023/11/30 04:01:22;;;;;;;;;0.00;0.00;;;;;6.37;100.00;99653.53;6301644;22;63057;-83
2023/11/30 04:03:48;;;;;;;;;0.00;0.00;;;;;6.30;100.00;99658.94;6304459;22;45281;-83
2023/11/30 04:06:23;;;;;;;;;52.00;49.00;;;;;6.32;100.00;99667.50;6305144;22;45299;-83
2023/11/30 04:08:51;;;;;;;;;0.00;0.00;;;;;6.26;100.00;99668.50;6304841;22;45447;-83
2023/11/30 04:11:17;;;;;;;;;0.00;0.00;;;;;6.22;100.00;99661.72;6305262;22;45269;-83
2023/11/30 04:13:46;;;;;;;;;0.00;0.00;;;;;6.22;100.00;99655.69;6304828;22;45329;-82
2023/11/30 04:16:16;;;;;;;;;0.00;0.00;;;;;6.20;100.00;99658.31;6304684;22;45231;-83
2023/11/30 04:18:41;;;;;;;;;0.00;0.00;;;;;6.16;100.00;99649.81;6302835;22;46201;-82
2023/11/30 04:21:07;;;;;;;;;0.00;0.00;;;;;6.20;100.00;99666.06;6302981;22;57475;-83
2023/11/30 04:23:32;;;;;;;;;0.00;0.00;;;;;6.22;100.00;99658.28;6303013;22;45352;-83
2023/11/30 04:25:57;;;;;;;;;0.00;0.00;;;;;6.26;100.00;99671.09;6304292;22;45435;-83
2023/11/30 04:28:23;;;;;;;;;0.00;0.00;;;;;6.28;100.00;99665.84;6303616;22;72004;-83
2023/11/30 04:30:48;;;;;;;;;0.00;0.00;;;;;6.28;100.00;99653.81;6303398;22;54402;-83
2023/11/30 04:33:13;;;;;;;;;30.00;30.00;;;;;6.33;100.00;99646.78;6302943;22;45262;-83
2023/11/30 04:35:39;;;;;;;;;1.00;1.00;;;;;6.35;100.00;99649.28;6304979;22;63382;-82
2023/11/30 04:38:04;;;;;;;;;3.00;3.00;;;;;6.43;100.00;99634.41;6304948;22;45321;-83
2023/11/30 04:40:30;;;;;;;;;0.00;0.00;;;;;6.46;100.00;99636.06;6304477;22;64824;-83
2023/11/30 04:42:55;;;;;;;;;0.00;0.00;;;;;6.47;100.00;99638.59;6304809;22;45638;-83
2023/11/30 04:45:20;;;;;;;;;0.00;0.00;;;;;6.49;100.00;99652.31;6302283;22;60399;-84
2023/11/30 04:47:46;;;;;;;;;0.00;0.00;;;;;6.51;100.00;99655.72;6304240;22;45151;-82
2023/11/30 04:50:11;;;;;;;;;0.00;0.00;;;;;6.54;100.00;99650.47;6303425;22;59617;-83
2023/11/30 04:52:36;;;;;;;;;0.00;0.00;;;;;6.52;100.00;99644.50;6302352;22;45338;-82
2023/11/30 04:55:02;;;;;;;;;12.00;12.00;;;;;6.49;100.00;99633.38;6304090;22;48114;-84
2023/11/30 04:57:27;;;;;;;;;0.00;0.00;;;;;6.46;100.00;99620.53;6302453;22;48171;-84
2023/11/30 04:59:52;;;;;;;;;4.00;4.00;;;;;6.47;100.00;99632.59;6302895;22;59335;-83
2023/11/30 05:02:18;;;;;;;;;0.00;0.00;;;;;6.48;100.00;99635.13;6303769;22;49072;-83
2023/11/30 05:04:43;;;;;;;;;2.67;2.67;;;;;6.49;100.00;99647.16;6302147;22;64680;-83
2023/11/30 05:07:08;;;;;;;;;0.00;0.00;;;;;6.60;100.00;99646.84;6304907;22;46189;-83
2023/11/30 05:09:34;;;;;;;;;0.00;0.00;;;;;6.58;100.00;99640.88;6303764;22;65205;-83
2023/11/30 05:11:59;;;;;;;;;0.00;0.00;;;;;6.57;100.00;99634.00;6305085;22;62194;-82
2023/11/30 05:14:24;;;;;;;;;13.50;13.50;;;;;6.58;100.00;99639.13;6302821;22;66868;-83
2023/11/30 05:16:50;;;;;;;;;0.00;0.00;;;;;6.59;100.00;99639.97;6306171;22;45283;-83
2023/11/30 05:19:15;;;;;;;;;0.00;0.00;;;;;6.61;100.00;99632.16;6305347;22;45391;-82
2023/11/30 05:21:41;;;;;;;;;3.00;3.00;;;;;6.57;100.00;99627.09;6306057;22;45287;-83
2023/11/30 05:24:06;;;;;;;;;0.00;0.00;;;;;6.51;100.00;99631.59;6305407;22;58065;-83
2023/11/30 05:26:31;;;;;;;;;0.00;0.00;;;;;6.50;100.00;99627.31;6304432;22;67019;-83
2023/11/30 05:28:57;;;;;;;;;0.00;0.00;;;;;6.46;100.00;99629.13;6305783;22;45291;-83
2023/11/30 05:31:22;;;;;;;;;3.00;3.00;;;;;6.44;100.00;99624.91;6276728;22;63177;-83
2023/11/30 05:33:48;;;;;;;;;0.00;0.00;;;;;6.44;100.00;99625.75;6305899;22;45253;-83
2023/11/30 05:36:13;;;;;;;;;0.00;0.00;;;;;6.44;100.00;99633.50;6304841;22;57288;-83
2023/11/30 05:38:38;;;;;;;;;0.00;0.00;;;;;6.44;100.00;99646.44;6304895;22;62166;-83
2023/11/30 05:41:04;;;;;;;;;0.67;0.67;;;;;6.44;100.00;99637.84;6303476;22;46434;-83
2023/11/30 05:43:31;;;;;;;;;0.00;0.00;;;;;6.46;100.00;99641.22;6304678;22;45455;-83
2023/11/30 05:45:57;;;;;;;;;0.00;0.00;;;;;6.45;100.00;99637.81;6305182;22;46277;-83
2023/11/30 05:48:22;;;;;;;;;0.00;0.00;;;;;6.46;100.00;99638.63;6304162;22;45206;-83
2023/11/30 05:50:50;;;;;;;;;0.00;0.00;;;;;6.50;100.00;99640.22;6304910;22;57345;-86
2023/11/30 05:53:15;;;;;;;;;0.00;0.00;;;;;6.49;100.00;99628.22;6303598;22;45381;-83
2023/11/30 05:55:41;;;;;;;;;0.00;0.00;;;;;6.52;100.00;99641.91;6304340;22;67830;-83
2023/11/30 05:58:06;;;;;;;;;1.00;1.00;;;;;6.52;100.00;99631.56;6303838;22;59994;-83
2023/11/30 06:00:31;;;;;;;;;0.00;0.00;;;;;6.53;100.00;99628.06;6303757;22;45368;-82
2023/11/30 06:02:57;;;;;;;;;0.00;0.00;;;;;6.58;100.00;99633.94;6302629;22;64862;-83
2023/11/30 06:05:22;;;;;;;;;0.00;0.00;;;;;6.53;100.00;99628.06;6303297;22;56532;-83
2023/11/30 06:07:47;;;;;;;;;0.00;0.00;;;;;6.53;100.00;99617.72;6305147;22;45338;-83
2023/11/30 06:10:14;;;;;;;;;0.00;0.00;;;;;6.52;100.00;99610.88;6302311;22;66788;-83
2023/11/30 06:12:39;;;;;;;;;0.00;0.00;;;;;6.55;100.00;99615.09;6304485;22;45342;-83
2023/11/30 06:15:05;;;;;;;;;0.00;0.00;;;;;6.56;100.00;99614.22;6303316;22;47213;-82
2023/11/30 06:17:30;;;;;;;;;0.00;0.00;;;;;6.54;100.00;99613.41;6303891;22;45307;-82
2023/11/30 06:19:55;;;;;;;;;0.00;0.00;;;;;6.54;100.00;99619.44;6303181;22;53627;-83
2023/11/30 06:22:21;;;;;;;;;0.00;0.00;;;;;6.52;100.00;99613.47;6305261;22;45208;-83
2023/11/30 06:24:46;;;;;;;;;0.00;0.00;;;;;6.53;100.00;99612.56;6304758;22;67815;-83
2023/11/30 06:27:12;;;;;;;;;0.00;0.00;;;;;6.50;100.00;99607.50;6304333;22;62984;-83
2023/11/30 06:29:37;;;;;;;;;0.75;0.75;;;;;6.53;100.00;99602.22;6305217;22;45423;-85
2023/11/30 06:32:03;;;;;;;;;0.00;0.00;;;;;6.56;100.00;99604.72;6303926;22;45473;-84
2023/11/30 06:34:28;;;;;;;;;0.00;0.00;;;;;6.58;100.00;99612.44;6304660;22;47157;-81
2023/11/30 06:36:54;;;;;;;;;0.00;0.00;;;;;6.59;100.00;99617.56;6302175;22;75094;-85
2023/11/30 06:39:20;;;;;;;;;0.00;0.00;;;;;6.55;100.00;99621.09;6304025;22;45227;-85
2023/11/30 06:41:48;;;;;;;;;0.00;0.00;;;;;6.56;100.00;99617.63;6305373;22;59298;-86
2023/11/30 06:44:14;;;;;;;;;0.00;0.00;;;;;6.54;100.00;99627.19;6304048;22;47330;-88
2023/11/30 06:46:42;;;;;;;;;12.00;12.00;;;;;6.56;100.00;99620.22;6278509;22;45453;-86
2023/11/30 06:49:08;;;;;;;;;0.00;0.00;;;;;6.51;100.00;99609.16;6306448;22;45145;-87
2023/11/30 06:51:33;;;;;;;;;0.00;0.00;;;;;6.48;100.00;99608.41;6304644;22;45253;-83
2023/11/30 06:53:59;;;;;;;;;1.00;1.00;;;;;6.45;100.00;99611.13;6307325;22;45369;-90
2023/11/30 06:56:24;;;;;;;;;0.00;0.00;;;;;6.44;100.00;99610.25;6308801;22;45350;-87
2023/11/30 06:58:59;;;;;;;;;0.00;0.00;;;;;6.47;100.00;99619.66;6310969;22;46047;-91
2023/11/30 07:02:12;;;;;;;;;0.00;0.00;;;;;6.42;100.00;99627.53;6317852;22;45206;-94
2023/11/30 07:05:24;;;;;;;;;0.00;0.00;;;;;6.37;100.00;99621.66;6192698;22;45533;-96
2023/11/30 07:08:14;;;;;;;;;0.00;0.00;;;;;6.34;100.00;99622.59;6182921;23;45400;-95
2023/11/30 07:10:40;;;;;;;;;0.00;0.00;;;;;6.27;100.00;99610.75;6181919;23;45439;-89
2023/11/30 07:13:06;;;;;;;;;10.00;10.00;;;;;6.28;100.00;99611.59;6180595;23;45399;-88
2023/11/30 07:15:54;;;;;;;;;0.00;0.00;;;;;6.17;100.00;99602.41;6181405;23;45426;-90
2023/11/30 07:18:19;;;;;;;;;0.00;0.00;;;;;6.14;100.00;99596.50;6154881;23;45385;-89
2023/11/30 07:20:51;;;;;;;;;0.00;0.00;;;;;6.18;100.00;99614.47;6180650;23;45232;-88
2023/11/30 07:29:34;;;;;;;;;0.00;0.00;;;;;6.03;100.00;99621.78;6080777;23;45356;-89
2023/11/30 07:32:21;;;;;;;;;;;;;;;;;;;;;
2023/11/30 07:35:12;;;;;;;;;0.00;0.00;;;;;5.93;100.00;99622.00;6112228;23;70025;-89
2023/11/30 07:38:18;;;;;;;;;0.00;0.00;;;;;5.98;100.00;99643.44;6150381;23;45429;-89
2023/11/30 07:40:56;;;;;;;;;0.00;0.00;;;;;5.86;100.00;99635.16;6091528;23;45868;-90
2023/11/30 07:43:21;;;;;;;;;0.00;0.00;;;;;5.90;100.00;99641.91;6091069;23;45287;-85
2023/11/30 07:45:46;;;;;;;;;0.00;0.00;;;;;5.86;100.00;99632.56;6089903;23;71932;-86
2023/11/30 07:48:12;;;;;;;;;0.00;0.00;;;;;5.82;100.00;99629.22;6089917;23;73956;-87
2023/11/30 07:50:37;;;;;;;;;0.00;0.00;;;;;5.84;100.00;99642.94;6090574;23;59822;-86
2023/11/30 07:53:04;;;;;;;;;0.00;0.00;;;;;5.79;100.00;99645.66;6089325;23;62470;-85
2023/11/30 07:55:29;;;;;;;;;0.00;0.00;;;;;5.79;100.00;99642.19;6092051;23;45239;-87
2023/11/30 07:57:55;;;;;;;;;0.00;0.00;;;;;5.84;100.00;99640.34;6092466;23;46209;-88
2023/11/30 08:00:23;;;;;;;;;0.00;0.00;;;;;5.83;100.00;99636.06;6066282;23;65183;-87
2023/11/30 08:02:49;;;;;;;;;0.00;0.00;;;;;5.77;100.00;99631.91;6139538;23;45368;-91
2023/11/30 08:05:14;;;;;;;;;0.00;0.00;;;;;5.79;100.00;99630.16;6155935;23;45217;-87
2023/11/30 08:07:42;;;;;;;;;4.50;4.50;;;;;5.80;100.00;99642.16;6179580;23;46982;-91
2023/11/30 08:10:08;;;;;;;;;0.00;0.00;;;;;5.83;100.00;99659.31;6156008;23;45488;-89
2023/11/30 08:12:33;;;;;;;;;0.00;0.00;;;;;5.79;100.00;99661.16;6155355;23;45426;-89
2023/11/30 08:14:58;;;;;;;;;0.00;0.00;;;;;5.82;100.00;99673.13;6155197;23;45426;-88
2023/11/30 08:17:24;;;;;;;;;0.00;0.00;;;;;5.80;100.00;99680.06;6253295;22;47739;-86
2023/11/30 08:19:50;;;;;;;;;6.00;6.00;;;;;5.77;100.00;99669.81;6243645;22;67064;-88
2023/11/30 08:22:16;;;;;;;;;0.00;0.00;;;;;5.82;100.00;99673.13;6221328;22;45240;-89
2023/11/30 08:24:42;;;;;;;;;0.00;0.00;;;;;5.72;100.00;99658.75;6221871;22;45146;-88
2023/11/30 08:27:07;;;;;;;;;1.75;1.75;;;;;5.79;100.00;99670.59;6221273;22;47288;-88
2023/11/30 08:29:35;;;;;;;;;0.00;0.00;;;;;5.75;100.00;99662.09;6246434;22;71999;-87
2023/11/30 08:32:01;;;;;;;;;0.00;0.00;;;;;5.84;100.00;99667.91;6247343;22;45433;-88
2023/11/30 08:34:29;;;;;;;;;0.00;0.00;;;;;5.82;100.00;99667.94;6247404;22;45524;-90
2023/11/30 08:36:55;;;;;;;;;0.00;0.00;;;;;5.72;100.00;99651.88;6255299;22;45354;-89
2023/11/30 08:39:23;;;;;;;;;0.00;0.00;;;;;5.84;100.00;99675.66;6279586;22;45574;-90
2023/11/30 08:41:50;;;;;;;;;0.00;0.00;;;;;5.80;100.00;99662.81;6230671;22;45240;-91
2023/11/30 08:44:15;;;;;;;;;0.00;0.00;;;;;5.85;100.00;99665.31;6224084;22;45438;-89
2023/11/30 08:46:40;;;;;;;;;0.00;0.00;;;;;5.88;100.00;99677.28;6248729;22;45704;-90
2023/11/30 08:49:06;;;;;;;;;0.00;0.00;;;;;5.90;100.00;99678.06;6222207;22;49352;-91
2023/11/30 08:51:31;;;;;;;;;0.00;0.00;;;;;5.93;100.00;99691.75;6248503;22;45456;-90
2023/11/30 08:53:56;;;;;;;;;0.00;0.00;;;;;5.93;100.00;99694.34;6249085;22;45549;-90
2023/11/30 08:56:22;;;;;;;;;31.00;31.00;;;;;5.99;100.00;99714.88;6223193;22;46808;-89
2023/11/30 08:58:48;;;;;;;;;0.25;0.25;;;;;6.00;100.00;99708.81;6277160;22;45413;-89
2023/11/30 09:01:13;;;;;;;;;0.25;0.25;;;;;6.06;100.00;99712.13;6252738;22;45419;-89
2023/11/30 09:03:38;;;;;;;;;0.00;0.00;;;;;6.06;100.00;99714.72;6254000;22;48851;-89
2023/11/30 09:06:04;;;;;;;;;0.00;0.00;;;;;6.05;100.00;99711.28;6227498;22;46750;-89
2023/11/30 09:08:29;;;;;;;;;0.00;0.00;;;;;6.06;100.00;99704.38;6254017;22;45698;-89
2023/11/30 09:10:55;;;;;;;;;0.00;0.00;;;;;6.08;100.00;99708.63;6251828;22;45793;-89
2023/11/30 09:13:22;;;;;;;;;0.00;0.00;;;;;6.17;100.00;99723.03;6248508;22;45264;-89
2023/11/30 09:15:47;;;;;;;;;0.00;0.00;;;;;6.23;100.00;99724.59;6222926;22;63631;-89
2023/11/30 09:18:13;;;;;;;;;0.00;0.00;;;;;6.27;100.00;99721.03;6247324;22;45263;-89
2023/11/30 09:20:38;;;;;;;;;0.00;0.00;;;;;6.31;100.00;99720.91;6247276;22;45252;-90
2023/11/30 09:53:57;;;;;;;;;0.00;0.00;;;;;7.12;100.00;99719.44;6272632;22;45868;-89
2023/11/30 09:56:23;;;;;;;;;0.00;0.00;;;;;7.24;100.00;99715.59;6294493;22;45350;-83
2023/11/30 09:58:48;;;;;;;;;0.00;0.00;;;;;7.35;100.00;99716.97;6301589;22;45693;-84
2023/11/30 10:01:13;;;;;;;;;0.00;0.00;;;;;7.46;100.00;99729.53;6277125;22;45292;-82
2023/11/30 10:03:39;;;;;;;;;0.00;0.00;;;;;7.55;100.00;99713.72;6277314;22;45596;-84
2023/11/30 10:06:04;;;;;;;;;0.00;0.00;;;;;7.63;100.00;99712.63;6277037;22;53639;-85
2023/11/30 10:08:30;;;;;;;;;0.00;0.00;;;;;7.71;100.00;99714.06;6304576;22;45306;-84
2023/11/30 10:10:55;;;;;;;;;0.00;0.00;;;;;7.77;100.00;99715.59;6305428;22;45333;-86
2023/11/30 10:13:20;;;;;;;;;0.00;0.00;;;;;7.85;100.00;99723.94;6303961;22;45293;-84
2023/11/30 10:15:46;;;;;;;;;6.00;6.00;;;;;7.93;100.00;99721.97;6251084;22;58924;-85
2023/11/30 10:18:12;;;;;;;;;0.00;0.00;;;;;8.04;100.00;99725.91;6250118;22;59881;-86
2023/11/30 10:20:38;;;;;;;;;0.00;0.00;;;;;8.08;100.00;99720.59;6276895;22;45471;-86
2023/11/30 10:23:12;;;;;;;;;0.00;0.00;;;;;8.22;100.00;99714.91;6305222;22;45203;-86
2023/11/30 10:25:40;;;;;;;;;0.00;0.00;;;;;8.41;100.00;99712.47;6251912;22;45340;-86
2023/11/30 10:28:12;;;;;;;;;0.50;0.50;;;;;8.53;100.00;99693.09;6251490;22;45485;-86
2023/11/30 10:30:41;;;;;;;;;1.00;1.00;;;;;8.67;100.00;99690.81;6304391;22;45324;-86
2023/11/30 10:33:11;;;;;;;;;0.00;0.00;;;;;8.82;100.00;99704.09;6304529;22;45403;-86
2023/11/30 10:35:37;;;;;;;;;0.75;0.75;;;;;8.95;100.00;99697.53;6277962;22;45416;-86
2023/11/30 10:38:04;;;;;;;;;0.00;0.00;;;;;9.13;100.00;99690.78;6277663;22;45476;-86
2023/11/30 10:40:29;;;;;;;;;0.00;0.00;;;;;9.28;100.00;99687.56;6251215;22;59687;-87
2023/11/30 10:42:59;;;;;;;;;0.00;0.00;;;;;9.55;100.00;99682.16;6277512;22;45352;-86
2023/11/30 10:45:26;;;;;;;;;0.00;0.00;;;;;9.90;100.00;99674.63;6251745;22;45287;-86
2023/11/30 10:47:52;;;;;;;;;0.00;0.00;;;;;10.39;100.00;99677.69;6277372;22;45188;-85
2023/11/30 10:50:18;;;;;;;;;0.00;0.00;;;;;11.32;100.00;99675.97;6277154;22;46726;-83
2023/11/30 10:52:45;;;;;;;;;0.00;0.00;;;;;12.17;100.00;99664.75;6277165;22;45204;-84
2023/11/30 10:55:12;;;;;;;;;0.00;0.00;;;;;12.40;100.00;99666.13;6276352;22;55421;-85
2023/11/30 10:57:45;;;;;;;;;0.00;0.00;;;;;12.48;100.00;99655.28;6277553;22;45387;-86
2023/11/30 11:00:12;;;;;;;;;0.00;0.00;;;;;13.97;100.00;99643.34;6277648;22;46357;-87
2023/11/30 11:02:39;;;;;;;;;1.00;1.00;;;;;15.58;100.00;99641.00;6277078;22;45336;-86
2023/11/30 11:05:15;;;;;;;;;7.00;7.00;;;;;16.79;100.00;99642.22;6277384;22;45278;-86
2023/11/30 11:07:59;;;;;;;;;0.00;0.00;;;;;17.91;100.00;99646.25;6305664;22;45266;-87
2023/11/30 11:10:35;;;;;;;;;0.00;0.00;;;;;19.39;100.00;99658.25;6280906;22;45266;-88
2023/11/30 11:13:01;;;;;;;;;0.00;0.00;;;;;20.55;100.00;99651.09;6280908;22;45262;-85
2023/11/30 11:15:31;;;;;;;;;0.00;0.00;;;;;21.43;100.00;99652.88;6279545;22;45263;-87
2023/11/30 11:18:21;;;;;;;;;0.00;0.00;;;;;21.79;100.00;99658.41;6279210;22;45430;-90
2023/11/30 11:20:43;;;;;;;;;0.00;0.00;;;;;21.47;100.00;99645.53;6281149;22;46941;-90
2023/11/30 11:23:09;;;;;;;;;0.00;0.00;;;;;21.29;100.00;99647.19;6252426;22;45672;-85
2023/11/30 11:25:37;;;;;;;;;0.00;0.00;;;;;20.62;100.00;99646.97;6305388;22;45349;-88
2023/11/30 11:28:03;;;;;;;;;0.00;0.00;;;;;19.73;100.00;99643.06;6277738;22;45593;-89
2023/11/30 11:30:28;;;;;;;;;0.00;0.00;;;;;19.14;100.00;99635.69;6304173;22;46524;-90
2023/11/30 11:36:38;;;;;;;;;0.00;0.00;;;;;17.51;95.17;99643.16;6117473;23;45306;-96
2023/11/30 11:42:14;;;;;;;;;0.00;0.00;;;;;16.52;100.00;99629.28;6009231;23;45591;-92
2023/11/30 12:53:46;;;;;;;;;0.00;0.00;;;;;16.91;100.00;99606.34;5151643;27;45369;-82
2023/11/30 12:56:12;;;;;;;;;0.00;0.00;;;;;17.94;100.00;99593.38;5132899;27;45434;-82
2023/11/30 12:58:37;;;;;;;;;0.00;0.00;;;;;17.90;100.00;99598.97;5118861;27;45791;-83
2023/11/30 13:01:03;;;;;;;;;0.00;0.00;;;;;18.15;100.00;99595.28;5127109;27;45526;-82
2023/11/30 13:03:29;;;;;;;;;0.00;0.00;;;;;18.04;100.00;99592.66;5124564;27;47943;-84
2023/11/30 13:05:54;;;;;;;;;0.00;0.00;;;;;17.21;100.00;99594.53;5128959;27;45545;-85
2023/11/30 13:08:20;;;;;;;;;0.00;0.00;;;;;16.32;100.00;99595.72;5105367;27;70454;-84
2023/11/30 13:10:45;;;;;;;;;0.00;0.00;;;;;15.63;100.00;99598.69;5129238;27;45430;-84
2023/11/30 13:13:11;;;;;;;;;0.00;0.00;;;;;14.94;100.00;99595.44;5121308;27;47232;-84
2023/11/30 13:15:36;;;;;;;;;0.00;0.00;;;;;14.44;100.00;99613.41;5113563;27;70428;-83
2023/11/30 13:18:02;;;;;;;;;0.00;0.00;;;;;14.01;100.00;99622.16;5122542;27;63790;-84
2023/11/30 13:20:27;;;;;;;;;0.00;0.00;;;;;13.68;100.00;99622.41;5130793;27;45544;-83
2023/11/30 13:22:53;;;;;;;;;0.00;0.00;;;;;13.41;100.00;99617.88;5131686;27;46050;-83
2023/11/30 13:25:18;;;;;;;;;0.00;0.00;;;;;13.16;100.00;99610.59;5127955;27;68702;-83